Date,TemperatureHighF,TemperatureAvgF,TemperatureLowF,DewpointHighF,DewpointAvgF,DewpointLowF,HumidityHigh,HumidityAvg,HumidityLow,PressureMaxIn,PressureMinIn,WindSpeedMaxMPH,WindSpeedAvgMPH,GustSpeedMaxMPH,PrecipitationSumIn
2013-9-1,92.0,79.7,75.0,77.0,72.8,-99.9,98,84,50,0.00,40.00,11,3,18,0.02
2013-9-2,94.0,79.0,74.0,79.0,74.1,69.0,99,87,45,0.00,40.00,15,2,28,0.41
2013-9-3,93.0,79.1,74.0,77.0,73.8,71.0,99,86,49,0.00,40.00,8,3,16,0.70
2013-9-4,85.0,80.6,77.0,78.0,76.4,75.0,98,88,73,0.00,40.00,8,4,15,0.02
2013-9-5,92.0,82.5,77.0,78.0,75.3,71.0,98,81,51,0.00,40.00,10,5,18,0.01
2013-9-6,94.0,83.8,77.0,79.0,75.3,71.0,97,78,49,0.00,40.00,9,4,15,0.00
2013-9-7,89.0,78.2,74.0,77.0,74.0,71.0,97,88,64,0.00,40.00,12,4,18,0.60
2013-9-8,90.0,78.7,73.0,76.0,71.8,-99.9,98,83,54,0.00,40.00,14,4,25,0.03
2013-9-9,89.0,80.7,74.0,77.0,73.5,70.0,99,81,55,0.00,40.00,11,5,20,0.03
2013-9-10,78.0,76.5,76.0,74.0,73.8,73.0,95,92,85,0.00,40.00,4,2,10,0.03
2013-9-19,89.0,80.7,76.0,75.0,73.8,72.0,95,81,57,0.00,40.00,9,6,23,0.20
2013-9-20,87.0,80.1,73.0,76.0,70.3,63.0,97,75,45,0.00,40.00,12,6,18,0.03
2013-9-21,90.0,80.8,74.0,75.0,71.4,67.0,96,76,47,0.00,40.00,8,4,17,0.00
2013-9-22,92.0,81.3,75.0,78.0,71.9,-99.9,97,77,47,0.00,40.00,10,5,18,0.00
2013-9-23,86.0,79.9,76.0,79.0,75.6,73.0,98,88,66,0.00,40.00,9,4,21,0.04
2013-9-24,89.0,79.8,74.0,79.0,74.6,72.0,96,85,63,0.00,40.00,9,5,28,0.38
2013-9-25,87.0,79.0,74.0,77.0,73.5,70.0,98,85,57,0.00,40.00,14,5,22,0.07
2013-9-26,89.0,79.4,75.0,79.0,76.1,74.0,99,90,65,0.00,40.00,13,6,29,0.47
2013-9-27,89.0,79.6,73.0,76.0,71.9,66.0,98,80,47,0.00,40.00,11,6,21,0.01
2013-9-28,87.0,79.1,73.0,74.0,71.3,68.0,98,79,54,0.00,40.00,13,6,31,0.44
2013-9-29,89.0,78.7,70.0,75.0,68.4,-99.9,98,75,48,0.00,40.00,11,5,16,0.44
2013-9-30,89.0,80.6,74.0,75.0,71.3,66.0,99,76,49,0.00,40.00,10,4,17,0.00